sensor_id;sensor_type;location;lat;lon;timestamp;P1;durP1;ratioP1;P2;durP2;ratioP2
40198;SDS011;25906;43.536;26.068;2024-02-21T00:00:02;37.58;;;18.58;;
40198;SDS011;25906;43.536;26.068;2024-02-21T00:02:47;39.00;;;19.30;;
40198;SDS011;25906;43.536;26.068;2024-02-21T00:05:33;36.88;;;17.45;;
40198;SDS011;25906;43.536;26.068;2024-02-21T00:08:18;36.95;;;16.65;;
40198;SDS011;25906;43.536;26.068;2024-02-21T00:11:04;38.53;;;17.65;;
40198;SDS011;25906;43.536;26.068;2024-02-21T00:16:37;38.65;;;18.40;;
40198;SDS011;25906;43.536;26.068;2024-02-21T00:19:23;36.92;;;17.50;;
40198;SDS011;25906;43.536;26.068;2024-02-21T00:22:08;42.50;;;18.52;;
40198;SDS011;25906;43.536;26.068;2024-02-21T00:24:54;40.33;;;18.80;;
40198;SDS011;25906;43.536;26.068;2024-02-21T00:27:39;38.92;;;18.85;;
40198;SDS011;25906;43.536;26.068;2024-02-21T00:30:25;37.35;;;16.92;;
40198;SDS011;25906;43.536;26.068;2024-02-21T00:33:10;36.20;;;17.63;;
40198;SDS011;25906;43.536;26.068;2024-02-21T00:35:56;41.90;;;19.75;;
40198;SDS011;25906;43.536;26.068;2024-02-21T00:38:41;45.85;;;19.70;;
40198;SDS011;25906;43.536;26.068;2024-02-21T00:41:27;35.92;;;17.85;;
40198;SDS011;25906;43.536;26.068;2024-02-21T00:44:12;45.33;;;18.85;;
40198;SDS011;25906;43.536;26.068;2024-02-21T00:46:58;41.25;;;19.02;;
40198;SDS011;25906;43.536;26.068;2024-02-21T00:49:43;40.85;;;20.08;;
40198;SDS011;25906;43.536;26.068;2024-02-21T00:52:29;41.03;;;18.50;;
40198;SDS011;25906;43.536;26.068;2024-02-21T00:55:14;36.13;;;17.48;;
40198;SDS011;25906;43.536;26.068;2024-02-21T00:58:00;38.65;;;18.02;;
40198;SDS011;25906;43.536;26.068;2024-02-21T01:00:45;37.47;;;16.85;;
40198;SDS011;25906;43.536;26.068;2024-02-21T01:03:31;47.33;;;19.58;;
40198;SDS011;25906;43.536;26.068;2024-02-21T01:06:16;40.65;;;17.80;;
40198;SDS011;25906;43.536;26.068;2024-02-21T01:09:02;43.28;;;20.83;;
40198;SDS011;25906;43.536;26.068;2024-02-21T01:11:47;43.13;;;19.45;;
40198;SDS011;25906;43.536;26.068;2024-02-21T01:14:32;36.22;;;17.38;;
40198;SDS011;25906;43.536;26.068;2024-02-21T01:17:18;40.38;;;19.13;;
40198;SDS011;25906;43.536;26.068;2024-02-21T01:20:04;37.90;;;18.10;;
40198;SDS011;25906;43.536;26.068;2024-02-21T01:22:50;36.55;;;17.05;;
40198;SDS011;25906;43.536;26.068;2024-02-21T01:25:36;40.38;;;17.52;;
40198;SDS011;25906;43.536;26.068;2024-02-21T01:28:21;33.85;;;16.48;;
40198;SDS011;25906;43.536;26.068;2024-02-21T01:33:52;35.28;;;16.65;;
40198;SDS011;25906;43.536;26.068;2024-02-21T01:36:38;41.03;;;17.48;;
40198;SDS011;25906;43.536;26.068;2024-02-21T01:39:23;34.53;;;16.73;;
40198;SDS011;25906;43.536;26.068;2024-02-21T01:42:09;39.65;;;17.45;;
40198;SDS011;25906;43.536;26.068;2024-02-21T01:44:54;42.83;;;18.17;;
40198;SDS011;25906;43.536;26.068;2024-02-21T01:47:40;43.47;;;18.88;;
40198;SDS011;25906;43.536;26.068;2024-02-21T01:53:11;40.63;;;17.48;;
40198;SDS011;25906;43.536;26.068;2024-02-21T01:56:03;38.47;;;17.83;;
40198;SDS011;25906;43.536;26.068;2024-02-21T01:58:50;41.42;;;18.55;;
40198;SDS011;25906;43.536;26.068;2024-02-21T02:01:36;44.28;;;17.35;;
40198;SDS011;25906;43.536;26.068;2024-02-21T02:04:22;41.78;;;17.23;;
40198;SDS011;25906;43.536;26.068;2024-02-21T02:07:08;36.03;;;17.38;;
40198;SDS011;25906;43.536;26.068;2024-02-21T02:09:53;40.50;;;17.75;;
40198;SDS011;25906;43.536;26.068;2024-02-21T02:12:39;40.50;;;17.98;;
40198;SDS011;25906;43.536;26.068;2024-02-21T02:15:24;38.13;;;17.50;;
40198;SDS011;25906;43.536;26.068;2024-02-21T02:18:10;41.20;;;18.83;;
40198;SDS011;25906;43.536;26.068;2024-02-21T02:20:56;39.15;;;18.15;;
40198;SDS011;25906;43.536;26.068;2024-02-21T02:23:42;39.13;;;16.75;;
40198;SDS011;25906;43.536;26.068;2024-02-21T02:26:27;38.92;;;18.15;;
40198;SDS011;25906;43.536;26.068;2024-02-21T02:29:13;36.80;;;18.23;;
40198;SDS011;25906;43.536;26.068;2024-02-21T02:31:58;43.80;;;18.05;;
40198;SDS011;25906;43.536;26.068;2024-02-21T02:34:43;37.95;;;18.48;;
40198;SDS011;25906;43.536;26.068;2024-02-21T02:37:29;46.55;;;21.02;;
40198;SDS011;25906;43.536;26.068;2024-02-21T02:40:14;41.83;;;19.70;;
40198;SDS011;25906;43.536;26.068;2024-02-21T02:43:00;39.53;;;18.00;;
40198;SDS011;25906;43.536;26.068;2024-02-21T02:48:31;41.88;;;16.90;;
40198;SDS011;25906;43.536;26.068;2024-02-21T02:51:16;41.45;;;17.67;;
40198;SDS011;25906;43.536;26.068;2024-02-21T02:54:03;42.63;;;17.73;;
40198;SDS011;25906;43.536;26.068;2024-02-21T02:56:49;37.03;;;16.88;;
40198;SDS011;25906;43.536;26.068;2024-02-21T02:59:35;40.38;;;17.55;;
40198;SDS011;25906;43.536;26.068;2024-02-21T03:02:20;40.35;;;18.27;;
40198;SDS011;25906;43.536;26.068;2024-02-21T03:05:12;39.85;;;17.35;;
40198;SDS011;25906;43.536;26.068;2024-02-21T03:08:02;46.25;;;18.00;;
40198;SDS011;25906;43.536;26.068;2024-02-21T03:10:51;38.22;;;18.33;;
40198;SDS011;25906;43.536;26.068;2024-02-21T03:13:37;41.58;;;18.00;;
40198;SDS011;25906;43.536;26.068;2024-02-21T03:16:22;39.90;;;18.77;;
40198;SDS011;25906;43.536;26.068;2024-02-21T03:19:08;40.90;;;18.50;;
40198;SDS011;25906;43.536;26.068;2024-02-21T03:21:54;43.67;;;18.40;;
40198;SDS011;25906;43.536;26.068;2024-02-21T03:24:39;38.60;;;17.60;;
40198;SDS011;25906;43.536;26.068;2024-02-21T03:27:25;42.00;;;18.30;;
40198;SDS011;25906;43.536;26.068;2024-02-21T03:30:11;47.53;;;18.63;;
40198;SDS011;25906;43.536;26.068;2024-02-21T03:32:57;41.50;;;17.95;;
40198;SDS011;25906;43.536;26.068;2024-02-21T03:35:42;38.75;;;17.90;;
40198;SDS011;25906;43.536;26.068;2024-02-21T03:38:28;41.70;;;17.98;;
40198;SDS011;25906;43.536;26.068;2024-02-21T03:41:14;44.47;;;19.10;;
40198;SDS011;25906;43.536;26.068;2024-02-21T03:43:59;42.20;;;18.55;;
40198;SDS011;25906;43.536;26.068;2024-02-21T03:46:45;42.00;;;18.25;;
40198;SDS011;25906;43.536;26.068;2024-02-21T03:49:30;43.70;;;18.48;;
40198;SDS011;25906;43.536;26.068;2024-02-21T03:52:16;45.20;;;18.25;;
40198;SDS011;25906;43.536;26.068;2024-02-21T03:57:47;45.63;;;19.33;;
40198;SDS011;25906;43.536;26.068;2024-02-21T04:00:32;39.92;;;18.95;;
40198;SDS011;25906;43.536;26.068;2024-02-21T04:03:18;41.85;;;19.08;;
40198;SDS011;25906;43.536;26.068;2024-02-21T04:06:03;41.75;;;18.27;;
40198;SDS011;25906;43.536;26.068;2024-02-21T04:11:34;39.60;;;18.35;;
40198;SDS011;25906;43.536;26.068;2024-02-21T04:14:20;44.42;;;19.80;;
40198;SDS011;25906;43.536;26.068;2024-02-21T04:17:05;41.42;;;19.27;;
40198;SDS011;25906;43.536;26.068;2024-02-21T04:19:53;38.63;;;17.98;;
40198;SDS011;25906;43.536;26.068;2024-02-21T04:22:50;41.85;;;18.73;;
40198;SDS011;25906;43.536;26.068;2024-02-21T04:25:35;37.22;;;17.30;;
40198;SDS011;25906;43.536;26.068;2024-02-21T04:28:21;37.80;;;17.00;;
40198;SDS011;25906;43.536;26.068;2024-02-21T04:31:06;36.72;;;20.25;;
40198;SDS011;25906;43.536;26.068;2024-02-21T04:33:52;41.00;;;19.10;;
40198;SDS011;25906;43.536;26.068;2024-02-21T04:36:37;39.45;;;18.52;;
40198;SDS011;25906;43.536;26.068;2024-02-21T04:39:23;39.95;;;16.90;;
40198;SDS011;25906;43.536;26.068;2024-02-21T04:42:08;37.60;;;16.90;;
40198;SDS011;25906;43.536;26.068;2024-02-21T04:44:54;38.40;;;17.38;;
40198;SDS011;25906;43.536;26.068;2024-02-21T04:47:39;33.88;;;15.63;;
40198;SDS011;25906;43.536;26.068;2024-02-21T04:50:24;39.40;;;17.52;;
40198;SDS011;25906;43.536;26.068;2024-02-21T04:53:10;38.25;;;16.88;;
40198;SDS011;25906;43.536;26.068;2024-02-21T04:55:55;43.63;;;16.23;;
40198;SDS011;25906;43.536;26.068;2024-02-21T04:58:41;36.47;;;16.10;;
40198;SDS011;25906;43.536;26.068;2024-02-21T05:01:27;35.08;;;16.30;;
40198;SDS011;25906;43.536;26.068;2024-02-21T05:04:16;45.95;;;17.42;;
40198;SDS011;25906;43.536;26.068;2024-02-21T05:07:01;47.70;;;19.40;;
40198;SDS011;25906;43.536;26.068;2024-02-21T05:09:47;40.22;;;17.60;;
40198;SDS011;25906;43.536;26.068;2024-02-21T05:12:32;42.83;;;17.88;;
40198;SDS011;25906;43.536;26.068;2024-02-21T05:15:18;44.05;;;18.52;;
40198;SDS011;25906;43.536;26.068;2024-02-21T05:18:03;43.42;;;19.95;;
40198;SDS011;25906;43.536;26.068;2024-02-21T05:20:49;38.42;;;17.75;;
40198;SDS011;25906;43.536;26.068;2024-02-21T05:23:34;41.00;;;17.73;;
40198;SDS011;25906;43.536;26.068;2024-02-21T05:26:23;45.00;;;18.90;;
40198;SDS011;25906;43.536;26.068;2024-02-21T05:29:09;37.47;;;17.00;;
40198;SDS011;25906;43.536;26.068;2024-02-21T05:31:55;42.15;;;18.10;;
40198;SDS011;25906;43.536;26.068;2024-02-21T05:34:42;41.45;;;18.20;;
40198;SDS011;25906;43.536;26.068;2024-02-21T05:37:27;38.00;;;16.70;;
40198;SDS011;25906;43.536;26.068;2024-02-21T05:40:13;43.53;;;18.35;;
40198;SDS011;25906;43.536;26.068;2024-02-21T05:42:58;38.97;;;16.75;;
40198;SDS011;25906;43.536;26.068;2024-02-21T05:45:44;33.88;;;16.38;;
40198;SDS011;25906;43.536;26.068;2024-02-21T05:48:29;40.10;;;16.55;;
40198;SDS011;25906;43.536;26.068;2024-02-21T05:51:15;54.60;;;18.00;;
40198;SDS011;25906;43.536;26.068;2024-02-21T05:54:00;46.33;;;18.23;;
40198;SDS011;25906;43.536;26.068;2024-02-21T05:59:32;39.25;;;17.67;;
40198;SDS011;25906;43.536;26.068;2024-02-21T06:02:17;47.40;;;19.63;;
40198;SDS011;25906;43.536;26.068;2024-02-21T06:05:03;42.15;;;20.17;;
40198;SDS011;25906;43.536;26.068;2024-02-21T06:07:51;39.58;;;18.42;;
40198;SDS011;25906;43.536;26.068;2024-02-21T06:10:37;42.67;;;19.75;;
40198;SDS011;25906;43.536;26.068;2024-02-21T06:13:25;43.75;;;19.67;;
40198;SDS011;25906;43.536;26.068;2024-02-21T06:16:10;37.92;;;18.20;;
40198;SDS011;25906;43.536;26.068;2024-02-21T06:18:56;51.88;;;24.55;;
40198;SDS011;25906;43.536;26.068;2024-02-21T06:21:41;44.38;;;20.90;;
40198;SDS011;25906;43.536;26.068;2024-02-21T06:27:12;49.83;;;21.00;;
40198;SDS011;25906;43.536;26.068;2024-02-21T06:30:00;40.38;;;19.38;;
40198;SDS011;25906;43.536;26.068;2024-02-21T06:32:45;40.58;;;18.33;;
40198;SDS011;25906;43.536;26.068;2024-02-21T06:38:16;41.08;;;18.70;;
40198;SDS011;25906;43.536;26.068;2024-02-21T06:41:03;43.47;;;18.63;;
40198;SDS011;25906;43.536;26.068;2024-02-21T06:43:49;38.72;;;18.05;;
40198;SDS011;25906;43.536;26.068;2024-02-21T06:46:36;54.33;;;23.08;;
40198;SDS011;25906;43.536;26.068;2024-02-21T06:49:21;64.97;;;33.10;;
40198;SDS011;25906;43.536;26.068;2024-02-21T06:52:06;49.85;;;23.45;;
40198;SDS011;25906;43.536;26.068;2024-02-21T06:54:52;56.55;;;26.25;;
40198;SDS011;25906;43.536;26.068;2024-02-21T06:57:37;52.10;;;25.58;;
40198;SDS011;25906;43.536;26.068;2024-02-21T07:00:23;50.85;;;26.02;;
40198;SDS011;25906;43.536;26.068;2024-02-21T07:05:54;51.38;;;24.02;;
40198;SDS011;25906;43.536;26.068;2024-02-21T07:08:39;262.23;;;85.70;;
40198;SDS011;25906;43.536;26.068;2024-02-21T07:11:25;134.32;;;50.45;;
40198;SDS011;25906;43.536;26.068;2024-02-21T07:14:10;100.70;;;38.45;;
40198;SDS011;25906;43.536;26.068;2024-02-21T07:16:56;65.45;;;26.38;;
40198;SDS011;25906;43.536;26.068;2024-02-21T07:19:42;51.85;;;23.95;;
40198;SDS011;25906;43.536;26.068;2024-02-21T07:22:27;42.75;;;19.77;;
40198;SDS011;25906;43.536;26.068;2024-02-21T07:25:13;45.80;;;21.92;;
40198;SDS011;25906;43.536;26.068;2024-02-21T07:27:58;44.70;;;21.63;;
40198;SDS011;25906;43.536;26.068;2024-02-21T07:30:44;41.13;;;20.38;;
40198;SDS011;25906;43.536;26.068;2024-02-21T07:33:29;36.80;;;19.20;;
40198;SDS011;25906;43.536;26.068;2024-02-21T07:36:15;38.33;;;17.85;;
40198;SDS011;25906;43.536;26.068;2024-02-21T07:39:17;39.40;;;17.77;;
40198;SDS011;25906;43.536;26.068;2024-02-21T07:42:03;40.40;;;18.60;;
40198;SDS011;25906;43.536;26.068;2024-02-21T07:44:48;33.80;;;16.77;;
40198;SDS011;25906;43.536;26.068;2024-02-21T07:47:34;33.90;;;16.38;;
40198;SDS011;25906;43.536;26.068;2024-02-21T07:53:05;31.33;;;16.38;;
40198;SDS011;25906;43.536;26.068;2024-02-21T07:55:51;37.70;;;17.48;;
40198;SDS011;25906;43.536;26.068;2024-02-21T07:58:36;35.85;;;17.40;;
40198;SDS011;25906;43.536;26.068;2024-02-21T08:01:21;36.60;;;17.13;;
40198;SDS011;25906;43.536;26.068;2024-02-21T08:04:07;36.15;;;16.73;;
40198;SDS011;25906;43.536;26.068;2024-02-21T08:06:53;39.13;;;16.52;;
40198;SDS011;25906;43.536;26.068;2024-02-21T08:09:39;37.33;;;16.17;;
40198;SDS011;25906;43.536;26.068;2024-02-21T08:12:25;37.58;;;17.17;;
40198;SDS011;25906;43.536;26.068;2024-02-21T08:15:12;37.88;;;17.35;;
40198;SDS011;25906;43.536;26.068;2024-02-21T08:17:57;35.78;;;16.23;;
40198;SDS011;25906;43.536;26.068;2024-02-21T08:20:46;33.05;;;15.40;;
40198;SDS011;25906;43.536;26.068;2024-02-21T08:23:31;29.88;;;15.50;;
40198;SDS011;25906;43.536;26.068;2024-02-21T08:26:17;33.75;;;16.95;;
40198;SDS011;25906;43.536;26.068;2024-02-21T08:29:02;37.53;;;19.33;;
40198;SDS011;25906;43.536;26.068;2024-02-21T08:31:48;36.30;;;18.63;;
40198;SDS011;25906;43.536;26.068;2024-02-21T08:34:33;53.15;;;24.60;;
40198;SDS011;25906;43.536;26.068;2024-02-21T08:37:19;51.92;;;28.30;;
40198;SDS011;25906;43.536;26.068;2024-02-21T08:40:04;46.70;;;25.45;;
40198;SDS011;25906;43.536;26.068;2024-02-21T08:42:53;62.78;;;28.77;;
40198;SDS011;25906;43.536;26.068;2024-02-21T08:45:38;57.35;;;28.95;;
40198;SDS011;25906;43.536;26.068;2024-02-21T08:48:24;70.78;;;33.60;;
40198;SDS011;25906;43.536;26.068;2024-02-21T08:51:10;64.15;;;30.65;;
40198;SDS011;25906;43.536;26.068;2024-02-21T08:53:56;77.20;;;38.83;;
40198;SDS011;25906;43.536;26.068;2024-02-21T08:56:43;78.55;;;38.30;;
40198;SDS011;25906;43.536;26.068;2024-02-21T08:59:29;86.15;;;44.30;;
40198;SDS011;25906;43.536;26.068;2024-02-21T09:02:14;99.72;;;53.20;;
40198;SDS011;25906;43.536;26.068;2024-02-21T09:05:03;36.75;;;18.70;;
40198;SDS011;25906;43.536;26.068;2024-02-21T09:07:50;40.20;;;20.77;;
40198;SDS011;25906;43.536;26.068;2024-02-21T09:10:35;44.03;;;20.92;;
40198;SDS011;25906;43.536;26.068;2024-02-21T09:13:21;32.65;;;16.58;;
40198;SDS011;25906;43.536;26.068;2024-02-21T09:16:06;38.65;;;17.38;;
40198;SDS011;25906;43.536;26.068;2024-02-21T09:18:52;43.38;;;19.92;;
40198;SDS011;25906;43.536;26.068;2024-02-21T09:21:37;71.75;;;33.95;;
40198;SDS011;25906;43.536;26.068;2024-02-21T09:24:23;86.75;;;38.10;;
40198;SDS011;25906;43.536;26.068;2024-02-21T09:27:08;127.53;;;55.38;;
40198;SDS011;25906;43.536;26.068;2024-02-21T09:29:54;82.18;;;37.42;;
40198;SDS011;25906;43.536;26.068;2024-02-21T09:32:39;37.08;;;18.55;;
40198;SDS011;25906;43.536;26.068;2024-02-21T09:35:25;73.90;;;34.05;;
40198;SDS011;25906;43.536;26.068;2024-02-21T09:38:12;56.35;;;25.85;;
40198;SDS011;25906;43.536;26.068;2024-02-21T09:41:22;38.45;;;22.65;;
40198;SDS011;25906;43.536;26.068;2024-02-21T09:44:06;28.75;;;17.13;;
40198;SDS011;25906;43.536;26.068;2024-02-21T09:47:02;50.80;;;23.30;;
40198;SDS011;25906;43.536;26.068;2024-02-21T09:49:49;34.90;;;17.08;;
40198;SDS011;25906;43.536;26.068;2024-02-21T09:52:37;36.30;;;22.67;;
40198;SDS011;25906;43.536;26.068;2024-02-21T09:55:22;32.22;;;17.08;;
40198;SDS011;25906;43.536;26.068;2024-02-21T09:58:10;28.67;;;14.85;;
40198;SDS011;25906;43.536;26.068;2024-02-21T10:00:56;25.10;;;13.32;;
40198;SDS011;25906;43.536;26.068;2024-02-21T10:03:43;24.13;;;13.38;;
40198;SDS011;25906;43.536;26.068;2024-02-21T10:06:29;26.25;;;12.23;;
40198;SDS011;25906;43.536;26.068;2024-02-21T10:09:21;21.42;;;11.75;;
40198;SDS011;25906;43.536;26.068;2024-02-21T10:12:13;24.17;;;11.82;;
40198;SDS011;25906;43.536;26.068;2024-02-21T10:15:02;19.63;;;10.48;;
40198;SDS011;25906;43.536;26.068;2024-02-21T10:17:48;18.02;;;10.48;;
40198;SDS011;25906;43.536;26.068;2024-02-21T10:20:33;19.63;;;10.68;;
40198;SDS011;25906;43.536;26.068;2024-02-21T10:23:19;19.15;;;10.13;;
40198;SDS011;25906;43.536;26.068;2024-02-21T10:26:05;20.02;;;11.25;;
40198;SDS011;25906;43.536;26.068;2024-02-21T10:28:51;17.02;;;10.25;;
40198;SDS011;25906;43.536;26.068;2024-02-21T10:31:37;21.50;;;11.35;;
40198;SDS011;25906;43.536;26.068;2024-02-21T10:34:23;17.48;;;9.95;;
40198;SDS011;25906;43.536;26.068;2024-02-21T10:37:09;20.33;;;10.50;;
40198;SDS011;25906;43.536;26.068;2024-02-21T10:39:55;19.45;;;10.57;;
40198;SDS011;25906;43.536;26.068;2024-02-21T10:42:42;21.20;;;10.68;;
40198;SDS011;25906;43.536;26.068;2024-02-21T10:45:34;24.23;;;12.57;;
40198;SDS011;25906;43.536;26.068;2024-02-21T10:48:22;19.67;;;10.30;;
40198;SDS011;25906;43.536;26.068;2024-02-21T10:51:17;16.27;;;9.82;;
40198;SDS011;25906;43.536;26.068;2024-02-21T10:54:10;14.63;;;8.50;;
40198;SDS011;25906;43.536;26.068;2024-02-21T10:57:06;15.38;;;8.50;;
40198;SDS011;25906;43.536;26.068;2024-02-21T10:59:53;17.00;;;8.85;;
40198;SDS011;25906;43.536;26.068;2024-02-21T11:02:40;16.17;;;7.47;;
40198;SDS011;25906;43.536;26.068;2024-02-21T11:05:26;13.23;;;7.72;;
40198;SDS011;25906;43.536;26.068;2024-02-21T11:08:13;24.55;;;8.10;;
40198;SDS011;25906;43.536;26.068;2024-02-21T11:10:59;18.10;;;7.40;;
40198;SDS011;25906;43.536;26.068;2024-02-21T11:13:45;12.15;;;7.43;;
40198;SDS011;25906;43.536;26.068;2024-02-21T11:16:34;12.82;;;6.85;;
40198;SDS011;25906;43.536;26.068;2024-02-21T11:19:25;13.73;;;7.60;;
40198;SDS011;25906;43.536;26.068;2024-02-21T11:22:14;11.30;;;7.18;;
40198;SDS011;25906;43.536;26.068;2024-02-21T11:25:07;12.40;;;7.00;;
40198;SDS011;25906;43.536;26.068;2024-02-21T11:28:04;14.95;;;7.93;;
40198;SDS011;25906;43.536;26.068;2024-02-21T11:30:51;13.68;;;7.28;;
40198;SDS011;25906;43.536;26.068;2024-02-21T11:33:42;14.95;;;7.30;;
40198;SDS011;25906;43.536;26.068;2024-02-21T11:36:28;12.05;;;7.03;;
40198;SDS011;25906;43.536;26.068;2024-02-21T11:39:17;15.40;;;7.60;;
40198;SDS011;25906;43.536;26.068;2024-02-21T11:42:07;13.65;;;7.95;;
40198;SDS011;25906;43.536;26.068;2024-02-21T11:44:53;12.27;;;6.10;;
40198;SDS011;25906;43.536;26.068;2024-02-21T11:47:42;10.63;;;6.22;;
40198;SDS011;25906;43.536;26.068;2024-02-21T11:50:28;10.70;;;6.20;;
40198;SDS011;25906;43.536;26.068;2024-02-21T11:53:14;10.55;;;5.97;;
40198;SDS011;25906;43.536;26.068;2024-02-21T11:55:59;10.32;;;6.10;;
40198;SDS011;25906;43.536;26.068;2024-02-21T11:58:45;13.25;;;6.97;;
40198;SDS011;25906;43.536;26.068;2024-02-21T12:01:32;12.68;;;7.00;;
40198;SDS011;25906;43.536;26.068;2024-02-21T12:04:19;12.30;;;7.75;;
40198;SDS011;25906;43.536;26.068;2024-02-21T12:07:05;14.73;;;7.00;;
40198;SDS011;25906;43.536;26.068;2024-02-21T12:09:51;13.93;;;7.40;;
40198;SDS011;25906;43.536;26.068;2024-02-21T12:12:37;13.18;;;7.63;;
40198;SDS011;25906;43.536;26.068;2024-02-21T12:15:24;15.40;;;8.10;;
40198;SDS011;25906;43.536;26.068;2024-02-21T12:18:10;11.85;;;7.15;;
40198;SDS011;25906;43.536;26.068;2024-02-21T12:20:55;14.30;;;7.55;;
40198;SDS011;25906;43.536;26.068;2024-02-21T12:23:41;12.07;;;8.02;;
40198;SDS011;25906;43.536;26.068;2024-02-21T12:26:26;12.07;;;8.32;;
40198;SDS011;25906;43.536;26.068;2024-02-21T12:29:12;13.02;;;8.55;;
40198;SDS011;25906;43.536;26.068;2024-02-21T12:31:57;15.20;;;8.48;;
40198;SDS011;25906;43.536;26.068;2024-02-21T12:34:43;13.98;;;8.55;;
40198;SDS011;25906;43.536;26.068;2024-02-21T12:37:28;13.13;;;8.07;;
40198;SDS011;25906;43.536;26.068;2024-02-21T12:40:14;13.75;;;7.85;;
40198;SDS011;25906;43.536;26.068;2024-02-21T12:43:00;15.40;;;8.23;;
40198;SDS011;25906;43.536;26.068;2024-02-21T12:45:48;15.23;;;8.70;;
40198;SDS011;25906;43.536;26.068;2024-02-21T12:48:34;17.95;;;9.77;;
40198;SDS011;25906;43.536;26.068;2024-02-21T12:51:19;13.00;;;8.48;;
40198;SDS011;25906;43.536;26.068;2024-02-21T12:54:05;13.18;;;8.82;;
40198;SDS011;25906;43.536;26.068;2024-02-21T12:56:51;30.52;;;15.07;;
40198;SDS011;25906;43.536;26.068;2024-02-21T12:59:36;26.98;;;14.85;;
40198;SDS011;25906;43.536;26.068;2024-02-21T13:02:22;20.02;;;9.68;;
40198;SDS011;25906;43.536;26.068;2024-02-21T13:05:07;21.70;;;10.18;;
40198;SDS011;25906;43.536;26.068;2024-02-21T13:07:53;22.17;;;10.60;;
40198;SDS011;25906;43.536;26.068;2024-02-21T13:10:39;17.83;;;9.90;;
40198;SDS011;25906;43.536;26.068;2024-02-21T13:13:24;18.85;;;11.38;;
40198;SDS011;25906;43.536;26.068;2024-02-21T13:16:10;19.63;;;10.50;;
40198;SDS011;25906;43.536;26.068;2024-02-21T13:18:56;19.55;;;10.13;;
40198;SDS011;25906;43.536;26.068;2024-02-21T13:21:41;15.63;;;9.40;;
40198;SDS011;25906;43.536;26.068;2024-02-21T13:24:27;17.15;;;10.10;;
40198;SDS011;25906;43.536;26.068;2024-02-21T13:27:14;14.38;;;9.60;;
40198;SDS011;25906;43.536;26.068;2024-02-21T13:30:00;15.98;;;8.52;;
40198;SDS011;25906;43.536;26.068;2024-02-21T13:32:48;14.70;;;9.45;;
40198;SDS011;25906;43.536;26.068;2024-02-21T13:35:33;15.95;;;9.60;;
40198;SDS011;25906;43.536;26.068;2024-02-21T13:38:21;15.48;;;8.88;;
40198;SDS011;25906;43.536;26.068;2024-02-21T13:41:07;19.92;;;10.10;;
40198;SDS011;25906;43.536;26.068;2024-02-21T13:43:52;76.05;;;25.85;;
40198;SDS011;25906;43.536;26.068;2024-02-21T13:46:38;20.27;;;11.80;;
40198;SDS011;25906;43.536;26.068;2024-02-21T13:49:24;18.17;;;9.68;;
40198;SDS011;25906;43.536;26.068;2024-02-21T13:52:09;36.17;;;16.83;;
40198;SDS011;25906;43.536;26.068;2024-02-21T13:54:55;15.43;;;9.52;;
40198;SDS011;25906;43.536;26.068;2024-02-21T13:57:40;12.63;;;8.25;;
40198;SDS011;25906;43.536;26.068;2024-02-21T14:00:26;16.23;;;8.82;;
40198;SDS011;25906;43.536;26.068;2024-02-21T14:03:12;14.80;;;8.20;;
40198;SDS011;25906;43.536;26.068;2024-02-21T14:05:58;16.20;;;8.80;;
40198;SDS011;25906;43.536;26.068;2024-02-21T14:08:43;22.38;;;13.95;;
40198;SDS011;25906;43.536;26.068;2024-02-21T14:11:29;14.57;;;8.30;;
40198;SDS011;25906;43.536;26.068;2024-02-21T14:14:15;11.40;;;7.55;;
40198;SDS011;25906;43.536;26.068;2024-02-21T14:17:01;17.38;;;8.85;;
40198;SDS011;25906;43.536;26.068;2024-02-21T14:19:46;17.10;;;9.65;;
40198;SDS011;25906;43.536;26.068;2024-02-21T14:22:32;11.60;;;7.45;;
40198;SDS011;25906;43.536;26.068;2024-02-21T14:25:18;13.10;;;7.97;;
40198;SDS011;25906;43.536;26.068;2024-02-21T14:28:03;16.70;;;9.23;;
40198;SDS011;25906;43.536;26.068;2024-02-21T14:30:49;14.43;;;8.55;;
40198;SDS011;25906;43.536;26.068;2024-02-21T14:33:38;17.98;;;9.50;;
40198;SDS011;25906;43.536;26.068;2024-02-21T14:36:24;15.55;;;9.55;;
40198;SDS011;25906;43.536;26.068;2024-02-21T14:39:09;20.77;;;10.05;;
40198;SDS011;25906;43.536;26.068;2024-02-21T14:41:55;16.88;;;9.05;;
40198;SDS011;25906;43.536;26.068;2024-02-21T14:44:40;17.23;;;9.73;;
40198;SDS011;25906;43.536;26.068;2024-02-21T14:47:26;14.13;;;8.95;;
40198;SDS011;25906;43.536;26.068;2024-02-21T14:50:11;15.65;;;8.63;;
40198;SDS011;25906;43.536;26.068;2024-02-21T14:52:57;15.85;;;9.20;;
40198;SDS011;25906;43.536;26.068;2024-02-21T14:55:42;20.85;;;8.60;;
40198;SDS011;25906;43.536;26.068;2024-02-21T14:58:27;17.77;;;8.50;;
40198;SDS011;25906;43.536;26.068;2024-02-21T15:01:13;17.02;;;8.02;;
40198;SDS011;25906;43.536;26.068;2024-02-21T15:03:58;16.00;;;8.68;;
40198;SDS011;25906;43.536;26.068;2024-02-21T15:06:44;56.78;;;9.63;;
40198;SDS011;25906;43.536;26.068;2024-02-21T15:12:15;20.73;;;8.90;;
40198;SDS011;25906;43.536;26.068;2024-02-21T15:15:01;22.63;;;9.30;;
40198;SDS011;25906;43.536;26.068;2024-02-21T15:17:46;17.27;;;8.85;;
40198;SDS011;25906;43.536;26.068;2024-02-21T15:20:32;16.95;;;8.60;;
40198;SDS011;25906;43.536;26.068;2024-02-21T15:23:17;28.65;;;9.60;;
40198;SDS011;25906;43.536;26.068;2024-02-21T15:26:03;17.40;;;8.57;;
40198;SDS011;25906;43.536;26.068;2024-02-21T15:28:48;24.45;;;8.70;;
40198;SDS011;25906;43.536;26.068;2024-02-21T15:31:34;19.52;;;10.30;;
40198;SDS011;25906;43.536;26.068;2024-02-21T15:34:19;23.10;;;11.15;;
40198;SDS011;25906;43.536;26.068;2024-02-21T15:37:05;21.60;;;10.88;;
40198;SDS011;25906;43.536;26.068;2024-02-21T15:39:50;27.42;;;12.27;;
40198;SDS011;25906;43.536;26.068;2024-02-21T15:42:36;30.33;;;13.95;;
40198;SDS011;25906;43.536;26.068;2024-02-21T15:45:23;35.47;;;16.42;;
40198;SDS011;25906;43.536;26.068;2024-02-21T15:48:08;26.30;;;13.68;;
40198;SDS011;25906;43.536;26.068;2024-02-21T15:53:39;28.17;;;12.20;;
40198;SDS011;25906;43.536;26.068;2024-02-21T15:56:29;23.63;;;10.82;;
40198;SDS011;25906;43.536;26.068;2024-02-21T15:59:15;16.88;;;9.93;;
40198;SDS011;25906;43.536;26.068;2024-02-21T16:02:00;16.73;;;10.27;;
40198;SDS011;25906;43.536;26.068;2024-02-21T16:04:46;20.48;;;10.85;;
40198;SDS011;25906;43.536;26.068;2024-02-21T16:07:31;19.98;;;11.60;;
40198;SDS011;25906;43.536;26.068;2024-02-21T16:10:17;14.15;;;8.75;;
40198;SDS011;25906;43.536;26.068;2024-02-21T16:13:03;12.00;;;7.88;;
40198;SDS011;25906;43.536;26.068;2024-02-21T16:15:48;16.27;;;8.10;;
40198;SDS011;25906;43.536;26.068;2024-02-21T16:18:34;14.75;;;8.25;;
40198;SDS011;25906;43.536;26.068;2024-02-21T16:21:19;13.52;;;9.13;;
40198;SDS011;25906;43.536;26.068;2024-02-21T16:24:05;22.88;;;11.68;;
40198;SDS011;25906;43.536;26.068;2024-02-21T16:26:50;16.50;;;10.23;;
40198;SDS011;25906;43.536;26.068;2024-02-21T16:29:36;16.20;;;9.35;;
40198;SDS011;25906;43.536;26.068;2024-02-21T16:35:08;15.30;;;8.10;;
40198;SDS011;25906;43.536;26.068;2024-02-21T16:37:54;13.05;;;7.45;;